createdAt,value
2022-11-07T00:02:07.160Z,8.10
2022-11-07T00:04:35.989Z,8.10
2022-11-07T00:07:06.005Z,8.10
2022-11-07T00:09:34.268Z,8.10
2022-11-07T00:12:02.438Z,8.10
2022-11-07T00:14:30.395Z,8.10
2022-11-07T00:16:58.364Z,8.00
2022-11-07T00:19:26.444Z,8.00
2022-11-07T00:21:54.508Z,7.90
2022-11-07T00:24:23.848Z,7.90
2022-11-07T00:26:51.838Z,8.00
2022-11-07T00:29:21.382Z,8.00
2022-11-07T00:31:49.879Z,7.80
2022-11-07T00:34:19.935Z,7.60
2022-11-07T00:36:47.929Z,7.50
2022-11-07T00:39:16.029Z,7.30
2022-11-07T00:41:48.786Z,7.30
2022-11-07T00:44:17.247Z,7.40
2022-11-07T00:46:45.257Z,7.40
2022-11-07T00:49:13.399Z,7.60
2022-11-07T00:51:42.080Z,7.60
2022-11-07T00:54:10.045Z,7.60
2022-11-07T00:56:38.078Z,7.50
2022-11-07T00:59:07.400Z,7.50
2022-11-07T01:01:36.062Z,7.60
2022-11-07T01:04:21.926Z,7.70
2022-11-07T01:06:49.989Z,7.50
2022-11-07T01:09:20.517Z,7.50
2022-11-07T01:11:49.346Z,7.40
2022-11-07T01:14:20.569Z,7.50
2022-11-07T01:16:48.690Z,7.60
2022-11-07T01:19:16.992Z,7.60
2022-11-07T01:21:45.187Z,7.60
2022-11-07T01:24:14.397Z,7.60
2022-11-07T01:26:44.011Z,7.60
2022-11-07T01:29:12.357Z,7.70
2022-11-07T01:31:41.865Z,7.70
2022-11-07T01:34:10.170Z,7.70
2022-11-07T01:36:38.407Z,7.70
2022-11-07T01:39:06.699Z,7.70
2022-11-07T01:41:37.626Z,7.70
2022-11-07T01:44:44.166Z,7.60
2022-11-07T01:47:13.587Z,7.60
2022-11-07T01:49:43.391Z,7.40
2022-11-07T01:52:16.078Z,7.30
2022-11-07T01:54:49.899Z,7.50
2022-11-07T01:57:22.882Z,7.50
2022-11-07T01:59:54.000Z,7.50
2022-11-07T02:02:25.197Z,7.40
2022-11-07T02:04:53.842Z,7.40
2022-11-07T02:07:24.293Z,7.40
2022-11-07T02:09:53.861Z,7.30
2022-11-07T02:12:23.503Z,7.30
2022-11-07T02:14:51.822Z,7.40
2022-11-07T02:17:20.623Z,7.30
2022-11-07T02:19:51.592Z,7.30
2022-11-07T02:22:27.594Z,7.30
2022-11-07T02:24:59.831Z,7.30
2022-11-07T02:27:31.134Z,7.10
2022-11-07T02:30:03.147Z,7.10
2022-11-07T02:32:31.276Z,7.00
2022-11-07T02:35:00.086Z,6.70
2022-11-07T02:37:31.685Z,6.70
2022-11-07T02:40:02.136Z,6.60
2022-11-07T02:42:43.445Z,6.70
2022-11-07T02:45:15.010Z,6.80
2022-11-07T02:47:43.304Z,6.90
2022-11-07T02:50:12.745Z,6.90
2022-11-07T02:52:40.673Z,6.90
2022-11-07T02:55:11.306Z,6.80
2022-11-07T02:57:39.356Z,6.80
2022-11-07T03:00:10.870Z,6.60
2022-11-07T03:02:39.122Z,6.50
2022-11-07T03:05:08.292Z,6.50
2022-11-07T03:07:36.248Z,6.40
2022-11-07T03:10:04.611Z,6.40
2022-11-07T03:12:33.907Z,6.50
2022-11-07T03:15:01.913Z,6.60
2022-11-07T03:17:29.928Z,6.50
2022-11-07T03:19:57.988Z,6.40
2022-11-07T03:22:25.987Z,6.40
2022-11-07T03:24:53.951Z,6.40
2022-11-07T03:27:22.344Z,6.40
2022-11-07T03:29:51.772Z,6.30
2022-11-07T03:32:19.754Z,6.30
2022-11-07T03:34:47.745Z,6.40
2022-11-07T03:37:16.436Z,6.40
2022-11-07T03:39:44.501Z,6.50
2022-11-07T03:42:12.462Z,6.70
2022-11-07T03:44:40.527Z,6.80
2022-11-07T03:47:09.831Z,6.90
2022-11-07T03:49:37.917Z,6.90
2022-11-07T03:52:06.204Z,6.90
2022-11-07T03:54:34.179Z,6.90
2022-11-07T03:57:02.173Z,6.80
2022-11-07T03:59:30.304Z,6.80
2022-11-07T04:01:58.303Z,6.90
2022-11-07T04:04:27.682Z,6.90
2022-11-07T04:06:55.798Z,6.90
2022-11-07T04:09:23.802Z,6.90
2022-11-07T04:12:09.140Z,6.90
2022-11-07T04:14:54.664Z,6.70
2022-11-07T04:17:22.680Z,6.50
2022-11-07T04:19:54.840Z,6.20
2022-11-07T04:22:23.853Z,6.30
2022-11-07T04:24:51.880Z,6.30
2022-11-07T04:27:37.995Z,6.30
2022-11-07T04:30:20.011Z,6.30
2022-11-07T04:32:48.929Z,6.10
2022-11-07T04:35:19.473Z,6.10
2022-11-07T04:37:48.258Z,6.00
2022-11-07T04:40:17.374Z,6.00
2022-11-07T04:42:46.096Z,5.90
2022-11-07T04:45:14.257Z,5.90
2022-11-07T04:47:42.554Z,5.80
2022-11-07T04:50:13.229Z,5.70
2022-11-07T04:52:42.931Z,5.60
2022-11-07T04:55:17.257Z,5.80
2022-11-07T04:57:45.390Z,5.90
2022-11-07T05:00:14.504Z,6.10
2022-11-07T05:02:42.512Z,6.20
2022-11-07T05:05:11.027Z,6.20
2022-11-07T05:07:39.563Z,6.00
2022-11-07T05:10:17.265Z,5.90
2022-11-07T05:12:45.219Z,5.70
2022-11-07T05:15:13.384Z,5.60
2022-11-07T05:17:41.443Z,5.60
2022-11-07T05:20:19.765Z,5.60
2022-11-07T05:23:05.239Z,5.60
2022-11-07T05:25:34.765Z,5.80
2022-11-07T05:28:02.731Z,6.10
2022-11-07T05:30:30.748Z,6.10
2022-11-07T05:33:01.107Z,5.90
2022-11-07T05:35:29.389Z,5.50
2022-11-07T05:37:57.392Z,5.50
2022-11-07T05:40:25.350Z,5.50
2022-11-07T05:42:59.614Z,5.40
2022-11-07T05:45:27.613Z,5.40
2022-11-07T05:47:58.848Z,5.40
2022-11-07T05:50:26.870Z,5.30
2022-11-07T05:52:54.908Z,5.40
2022-11-07T05:55:23.541Z,5.50
2022-11-07T05:57:51.928Z,5.50
2022-11-07T06:00:21.749Z,5.50
2022-11-07T06:02:56.161Z,5.50
2022-11-07T06:05:26.337Z,5.60
2022-11-07T06:07:54.347Z,5.70
2022-11-07T06:10:22.637Z,5.80
2022-11-07T06:12:59.569Z,5.80
2022-11-07T06:15:31.279Z,5.80
2022-11-07T06:18:00.594Z,5.80
2022-11-07T06:20:28.854Z,5.70
2022-11-07T06:22:59.054Z,5.50
2022-11-07T06:25:27.230Z,5.40
2022-11-07T06:27:59.446Z,5.30
2022-11-07T06:30:29.309Z,5.30
2022-11-07T06:33:01.022Z,5.30
2022-11-07T06:35:29.195Z,5.30
2022-11-07T06:37:57.227Z,5.30
2022-11-07T06:40:25.199Z,5.30
2022-11-07T06:42:53.210Z,5.30
2022-11-07T06:45:22.158Z,5.40
2022-11-07T06:47:51.487Z,5.50
2022-11-07T06:50:21.659Z,5.60
2022-11-07T06:52:49.573Z,5.70
2022-11-07T06:55:17.759Z,5.80
2022-11-07T06:57:45.713Z,5.80
2022-11-07T07:00:15.171Z,5.80
2022-11-07T07:02:58.078Z,5.90
2022-11-07T07:05:28.595Z,6.00
2022-11-07T07:07:59.424Z,6.10
2022-11-07T07:10:27.713Z,6.10
2022-11-07T07:12:56.609Z,6.10
2022-11-07T07:15:24.878Z,5.90
2022-11-07T07:17:52.817Z,5.80
2022-11-07T07:20:20.972Z,5.90
2022-11-07T07:22:57.033Z,5.70
2022-11-07T07:25:30.539Z,5.40
2022-11-07T07:27:58.481Z,5.40
2022-11-07T07:30:26.449Z,5.40
2022-11-07T07:32:54.773Z,5.40
2022-11-07T07:35:22.793Z,5.50
2022-11-07T07:37:52.884Z,5.80
2022-11-07T07:40:22.106Z,6.00
2022-11-07T07:42:50.299Z,6.20
2022-11-07T07:45:18.598Z,6.30
2022-11-07T07:47:46.578Z,6.30
2022-11-07T07:50:15.070Z,6.40
2022-11-07T07:52:43.827Z,6.30
2022-11-07T07:55:13.247Z,6.20
2022-11-07T07:57:42.624Z,6.00
2022-11-07T08:00:12.834Z,5.90
2022-11-07T08:02:43.733Z,5.90
2022-11-07T08:05:12.741Z,6.00
2022-11-07T08:07:46.911Z,6.10
2022-11-07T08:10:40.291Z,6.10
2022-11-07T08:13:05.144Z,6.30
2022-11-07T08:15:33.218Z,6.20
2022-11-07T08:18:04.481Z,6.10
2022-11-07T08:20:32.789Z,6.10
2022-11-07T08:23:04.750Z,6.10
2022-11-07T08:25:34.179Z,6.20
2022-11-07T08:28:02.587Z,6.40
2022-11-07T08:30:31.804Z,6.40
2022-11-07T08:33:01.037Z,6.40
2022-11-07T08:35:28.972Z,6.30
2022-11-07T08:37:56.893Z,6.40
2022-11-07T08:40:25.064Z,6.50
2022-11-07T08:42:54.424Z,6.50
2022-11-07T08:45:22.436Z,6.60
2022-11-07T08:47:50.375Z,6.60
2022-11-07T08:50:18.600Z,6.70
2022-11-07T08:52:46.525Z,6.80
2022-11-07T08:55:14.495Z,6.90
2022-11-07T08:57:42.423Z,7.00
2022-11-07T09:00:13.408Z,7.10
2022-11-07T09:03:18.370Z,7.20
2022-11-07T09:05:29.281Z,7.30
2022-11-07T09:07:57.244Z,7.30
2022-11-07T09:10:25.328Z,7.40
2022-11-07T09:12:53.847Z,7.40
2022-11-07T09:15:23.588Z,7.50
2022-11-07T09:17:51.976Z,7.50
2022-11-07T09:20:20.138Z,7.50
2022-11-07T09:22:48.346Z,7.70
2022-11-07T09:25:16.555Z,7.70
2022-11-07T09:27:45.537Z,7.80
2022-11-07T09:30:14.424Z,7.90
2022-11-07T09:32:45.392Z,8.00
2022-11-07T09:35:14.537Z,8.00
2022-11-07T09:37:43.334Z,8.10
2022-11-07T09:40:24.702Z,8.20
2022-11-07T09:43:04.668Z,8.20
2022-11-07T09:45:35.798Z,8.30
2022-11-07T09:48:07.785Z,8.40
2022-11-07T09:50:39.550Z,8.40
2022-11-07T09:53:13.901Z,8.40
2022-11-07T09:55:47.575Z,8.50
2022-11-07T09:58:27.526Z,8.60
2022-11-07T10:00:58.300Z,8.70
2022-11-07T10:03:27.915Z,8.70
2022-11-07T10:06:01.363Z,8.80
2022-11-07T10:08:35.464Z,8.90
2022-11-07T10:11:09.341Z,9.00
2022-11-07T10:13:51.139Z,9.00
2022-11-07T10:16:23.212Z,9.00
2022-11-07T10:19:05.217Z,9.00
2022-11-07T10:21:42.391Z,9.00
2022-11-07T10:24:29.061Z,9.10
2022-11-07T10:26:58.107Z,9.20
2022-11-07T10:29:44.859Z,9.30
2022-11-07T10:32:21.249Z,9.30
2022-11-07T10:34:57.091Z,9.40
2022-11-07T10:37:25.332Z,9.40
2022-11-07T10:39:53.365Z,9.50
2022-11-07T10:42:24.108Z,9.50
2022-11-07T10:44:55.051Z,9.50
2022-11-07T10:47:25.046Z,9.60
2022-11-07T10:50:00.323Z,9.80
2022-11-07T10:52:29.983Z,9.80
2022-11-07T10:55:09.312Z,9.90
2022-11-07T10:57:37.487Z,9.90
2022-11-07T11:00:21.520Z,9.90
2022-11-07T11:02:50.780Z,10.00
2022-11-07T11:05:25.954Z,10.10
2022-11-07T11:07:56.679Z,10.10
2022-11-07T11:10:27.298Z,10.20
2022-11-07T11:12:55.424Z,10.20
2022-11-07T11:15:25.459Z,10.20
2022-11-07T11:18:02.520Z,10.10
2022-11-07T11:20:38.895Z,10.10
2022-11-07T11:23:09.022Z,10.20
2022-11-07T11:25:48.810Z,10.20
2022-11-07T11:28:24.920Z,10.30
2022-11-07T11:30:59.337Z,10.40
2022-11-07T11:33:33.151Z,10.40
2022-11-07T11:36:10.763Z,10.50
2022-11-07T11:38:39.321Z,10.60
2022-11-07T11:41:17.331Z,10.60
2022-11-07T11:43:49.537Z,10.70
2022-11-07T11:46:27.654Z,10.70
2022-11-07T11:49:00.841Z,10.80
2022-11-07T11:51:38.654Z,10.80
2022-11-07T11:54:10.227Z,10.90
2022-11-07T11:56:53.613Z,10.90
2022-11-07T11:59:49.378Z,10.90
2022-11-07T12:02:50.120Z,10.90
2022-11-07T12:05:36.020Z,11.00
2022-11-07T12:08:20.570Z,11.00
2022-11-07T12:10:55.833Z,11.00
2022-11-07T12:13:32.220Z,11.00
2022-11-07T12:16:17.879Z,11.10
2022-11-07T12:18:54.937Z,11.10
2022-11-07T12:21:33.705Z,11.10
2022-11-07T12:24:24.155Z,11.20
2022-11-07T12:26:59.495Z,11.20
2022-11-07T12:29:34.892Z,11.20
2022-11-07T12:32:15.471Z,11.30
2022-11-07T12:35:03.237Z,11.30
2022-11-07T12:38:03.265Z,11.30
2022-11-07T12:40:42.452Z,11.30
2022-11-07T12:43:25.851Z,11.40
2022-11-07T12:45:58.234Z,11.40
2022-11-07T12:48:57.536Z,11.40
2022-11-07T12:51:36.609Z,11.50
2022-11-07T12:54:21.525Z,11.50
2022-11-07T12:56:51.975Z,11.50
2022-11-07T12:59:25.916Z,11.50
2022-11-07T13:02:01.204Z,11.50
2022-11-07T13:04:39.524Z,11.50
2022-11-07T13:07:14.341Z,11.50
2022-11-07T13:09:51.815Z,11.50
2022-11-07T13:12:28.140Z,11.50
2022-11-07T13:14:57.135Z,11.50
2022-11-07T13:17:27.759Z,11.60
2022-11-07T13:20:04.919Z,11.60
2022-11-07T13:22:35.535Z,11.60
2022-11-07T13:25:26.089Z,11.60
2022-11-07T13:28:08.283Z,11.60
2022-11-07T13:30:38.855Z,11.50
2022-11-07T13:33:09.130Z,11.50
2022-11-07T13:35:38.673Z,11.50
2022-11-07T13:38:13.617Z,11.50
2022-11-07T13:40:47.972Z,11.50
2022-11-07T13:43:20.812Z,11.40
2022-11-07T13:45:50.949Z,11.40
2022-11-07T13:48:23.064Z,11.40
2022-11-07T13:50:58.914Z,11.30
2022-11-07T13:53:34.127Z,11.30
2022-11-07T13:56:06.114Z,11.30
2022-11-07T13:58:39.715Z,11.30
2022-11-07T14:01:11.666Z,11.20
2022-11-07T14:03:40.038Z,11.20
2022-11-07T14:06:08.869Z,11.20
2022-11-07T14:08:40.798Z,11.10
2022-11-07T14:11:17.088Z,11.10
2022-11-07T14:13:48.539Z,11.10
2022-11-07T14:16:21.862Z,11.00
2022-11-07T14:18:51.837Z,11.00
2022-11-07T14:21:26.649Z,11.10
2022-11-07T14:23:54.835Z,11.00
2022-11-07T14:26:26.010Z,11.00
2022-11-07T14:28:57.748Z,11.00
2022-11-07T14:31:29.344Z,11.00
2022-11-07T14:33:59.717Z,10.90
2022-11-07T14:36:29.033Z,10.90
2022-11-07T14:39:02.873Z,10.90
2022-11-07T14:41:31.362Z,10.90
2022-11-07T14:44:04.830Z,10.80
2022-11-07T14:46:33.080Z,10.80
2022-11-07T14:49:01.427Z,10.80
2022-11-07T14:51:30.213Z,10.80
2022-11-07T14:54:03.851Z,10.80
2022-11-07T14:56:36.588Z,10.80
2022-11-07T14:59:08.961Z,10.70
2022-11-07T15:01:37.070Z,10.70
2022-11-07T15:04:17.604Z,10.70
2022-11-07T15:06:46.713Z,10.60
2022-11-07T15:09:15.209Z,10.60
2022-11-07T15:11:54.876Z,10.60
2022-11-07T15:14:30.457Z,10.50
2022-11-07T15:16:58.577Z,10.50
2022-11-07T15:19:26.646Z,10.50
2022-11-07T15:21:56.791Z,10.40
2022-11-07T15:24:35.503Z,10.40
2022-11-07T15:27:06.083Z,10.30
2022-11-07T15:29:37.143Z,10.30
2022-11-07T15:32:08.828Z,10.30
2022-11-07T15:34:58.679Z,10.20
2022-11-07T15:37:27.061Z,10.20
2022-11-07T15:39:55.619Z,10.10
2022-11-07T15:42:23.588Z,10.10
2022-11-07T15:44:52.954Z,10.10
2022-11-07T15:47:23.090Z,10.10
2022-11-07T15:49:51.572Z,10.10
2022-11-07T15:52:19.554Z,10.10
2022-11-07T15:54:47.641Z,10.00
2022-11-07T15:57:15.627Z,10.00
2022-11-07T15:59:43.847Z,9.90
2022-11-07T16:02:16.733Z,9.90
2022-11-07T16:04:44.931Z,9.80
2022-11-07T16:07:17.636Z,9.80
2022-11-07T16:09:48.487Z,9.80
2022-11-07T16:12:18.529Z,9.70
2022-11-07T16:14:46.504Z,9.70
2022-11-07T16:17:16.949Z,9.70
2022-11-07T16:19:45.011Z,9.60
2022-11-07T16:22:14.359Z,9.60
2022-11-07T16:24:42.353Z,9.60
2022-11-07T16:27:14.466Z,9.60
2022-11-07T16:29:44.182Z,9.50
2022-11-07T16:32:18.503Z,9.50
2022-11-07T16:34:46.982Z,9.50
2022-11-07T16:37:14.936Z,9.50
2022-11-07T16:39:43.050Z,9.50
2022-11-07T16:42:15.659Z,9.40
2022-11-07T16:44:43.800Z,9.40
2022-11-07T16:47:17.092Z,9.40
2022-11-07T16:49:45.236Z,9.30
2022-11-07T16:52:15.989Z,9.30
2022-11-07T16:54:44.098Z,9.30
2022-11-07T16:57:14.511Z,9.30
2022-11-07T16:59:43.272Z,9.20
2022-11-07T17:02:21.577Z,9.20
2022-11-07T17:04:53.072Z,9.20
2022-11-07T17:07:24.087Z,9.20
2022-11-07T17:09:52.312Z,9.20
2022-11-07T17:12:22.644Z,9.10
2022-11-07T17:14:51.218Z,9.10
2022-11-07T17:17:20.951Z,9.10
2022-11-07T17:19:49.057Z,9.10
2022-11-07T17:22:17.820Z,9.00
2022-11-07T17:24:45.931Z,9.00
2022-11-07T17:27:31.478Z,9.00
2022-11-07T17:30:02.073Z,8.90
2022-11-07T17:32:33.868Z,8.90
2022-11-07T17:35:30.082Z,8.90
2022-11-07T17:37:49.803Z,8.90
2022-11-07T17:40:22.769Z,8.90
2022-11-07T17:42:50.716Z,8.90
2022-11-07T17:45:18.837Z,8.90
2022-11-07T17:47:48.179Z,8.90
2022-11-07T17:50:17.674Z,8.80
2022-11-07T17:52:45.711Z,8.80
2022-11-07T17:55:13.982Z,8.80
2022-11-07T17:57:43.446Z,8.70
2022-11-07T18:00:16.651Z,8.70
2022-11-07T18:02:44.858Z,8.70
2022-11-07T18:05:19.109Z,8.70
2022-11-07T18:07:47.168Z,8.70
2022-11-07T18:10:16.438Z,8.70
2022-11-07T18:12:44.666Z,8.60
2022-11-07T18:15:13.441Z,8.60
2022-11-07T18:17:42.217Z,8.70
2022-11-07T18:20:11.619Z,8.70
2022-11-07T18:22:40.912Z,8.70
2022-11-07T18:25:10.002Z,8.60
2022-11-07T18:27:37.954Z,8.60
2022-11-07T18:30:07.163Z,8.60
2022-11-07T18:32:36.815Z,8.60
2022-11-07T18:35:06.129Z,8.60
2022-11-07T18:37:34.355Z,8.60
2022-11-07T18:40:03.774Z,8.50
2022-11-07T18:42:31.729Z,8.50
2022-11-07T18:44:59.769Z,8.40
2022-11-07T18:47:29.601Z,8.40
2022-11-07T18:49:57.798Z,8.40
2022-11-07T18:52:25.824Z,8.40
2022-11-07T18:54:54.226Z,8.40
2022-11-07T18:57:23.579Z,8.40
2022-11-07T18:59:51.605Z,8.40
2022-11-07T19:02:19.564Z,8.50
2022-11-07T19:04:47.753Z,8.40
2022-11-07T19:07:15.670Z,8.40
2022-11-07T19:09:43.679Z,8.30
2022-11-07T19:12:11.637Z,8.20
2022-11-07T19:14:41.030Z,8.10
2022-11-07T19:17:08.995Z,8.20
2022-11-07T19:19:37.207Z,8.30
2022-11-07T19:22:05.672Z,8.30
2022-11-07T19:24:33.681Z,8.30
2022-11-07T19:27:01.973Z,8.30
2022-11-07T19:29:30.033Z,8.20
2022-11-07T19:31:59.485Z,8.20
2022-11-07T19:34:27.533Z,8.20
2022-11-07T19:36:55.494Z,8.20
2022-11-07T19:39:23.509Z,8.20
2022-11-07T19:41:51.543Z,8.20
2022-11-07T19:44:19.732Z,8.20
2022-11-07T19:46:47.988Z,8.20
2022-11-07T19:49:17.327Z,8.20
2022-11-07T19:51:45.305Z,8.20
2022-11-07T19:54:13.677Z,8.20
2022-11-07T19:56:41.642Z,8.20
2022-11-07T19:59:10.923Z,8.10
2022-11-07T20:01:39.523Z,8.10
2022-11-07T20:04:08.870Z,8.10
2022-11-07T20:06:39.599Z,8.10
2022-11-07T20:09:09.629Z,8.10
2022-11-07T20:11:37.933Z,8.00
2022-11-07T20:14:06.169Z,7.90
2022-11-07T20:16:42.640Z,7.90
2022-11-07T20:19:11.839Z,7.90
2022-11-07T20:21:41.217Z,8.00
2022-11-07T20:24:10.052Z,8.00
2022-11-07T20:26:38.592Z,7.90
2022-11-07T20:29:07.413Z,7.90
2022-11-07T20:31:37.730Z,7.90
2022-11-07T20:34:08.676Z,7.90
2022-11-07T20:36:36.795Z,7.90
2022-11-07T20:39:07.367Z,7.90
2022-11-07T20:41:36.152Z,7.90
2022-11-07T20:44:06.625Z,7.90
2022-11-07T20:46:36.520Z,7.90
2022-11-07T20:49:08.404Z,7.80
2022-11-07T20:51:36.342Z,7.80
2022-11-07T20:54:05.895Z,7.70
2022-11-07T20:56:34.260Z,7.70
2022-11-07T20:59:02.397Z,7.70
2022-11-07T21:01:36.274Z,7.70
2022-11-07T21:04:05.517Z,7.70
2022-11-07T21:06:33.818Z,7.60
2022-11-07T21:09:02.183Z,7.60
2022-11-07T21:11:32.004Z,7.60
2022-11-07T21:14:00.369Z,7.50
2022-11-07T21:16:29.127Z,7.50
2022-11-07T21:18:57.790Z,7.50
2022-11-07T21:21:33.574Z,7.60
2022-11-07T21:24:02.006Z,7.60
2022-11-07T21:26:33.352Z,7.50
2022-11-07T21:29:02.114Z,7.50
2022-11-07T21:31:31.848Z,7.50
2022-11-07T21:34:00.148Z,7.50
2022-11-07T21:36:30.219Z,7.50
2022-11-07T21:38:59.435Z,7.50
2022-11-07T21:41:27.890Z,7.40
2022-11-07T21:43:59.603Z,7.40
2022-11-07T21:46:29.328Z,7.40
2022-11-07T21:48:58.473Z,7.40
2022-11-07T21:51:30.982Z,7.40
2022-11-07T21:53:59.975Z,7.30
2022-11-07T21:56:29.344Z,7.30
2022-11-07T21:59:00.371Z,7.30
2022-11-07T22:01:29.248Z,7.30
2022-11-07T22:04:07.217Z,7.30
2022-11-07T22:06:37.614Z,7.30
2022-11-07T22:09:06.135Z,7.30
2022-11-07T22:11:34.562Z,7.30
2022-11-07T22:14:03.910Z,7.30
2022-11-07T22:16:32.317Z,7.30
2022-11-07T22:19:01.077Z,7.30
2022-11-07T22:21:31.313Z,7.20
2022-11-07T22:23:59.668Z,7.20
2022-11-07T22:26:29.501Z,7.20
2022-11-07T22:28:58.501Z,7.20
2022-11-07T22:31:30.276Z,7.20
2022-11-07T22:34:00.827Z,7.20
2022-11-07T22:36:29.797Z,7.20
2022-11-07T22:38:58.798Z,7.20
2022-11-07T22:41:29.148Z,7.10
2022-11-07T22:43:58.149Z,7.20
2022-11-07T22:46:30.458Z,7.20
2022-11-07T22:49:01.866Z,7.20
2022-11-07T22:51:31.821Z,7.10
2022-11-07T22:54:00.123Z,7.10
2022-11-07T22:56:28.347Z,7.10
2022-11-07T22:58:56.973Z,7.10
2022-11-07T23:01:28.512Z,7.00
2022-11-07T23:03:57.608Z,7.00
2022-11-07T23:06:26.980Z,6.90
2022-11-07T23:08:57.104Z,7.10
2022-11-07T23:14:17.350Z,7.20
2022-11-07T23:16:48.930Z,7.20
2022-11-07T23:19:18.590Z,7.20
2022-11-07T23:21:46.682Z,7.10
2022-11-07T23:24:16.066Z,7.10
2022-11-07T23:26:44.362Z,7.10
2022-11-07T23:29:14.996Z,7.00
2022-11-07T23:31:45.374Z,7.00
2022-11-07T23:34:15.469Z,7.00
2022-11-07T23:36:44.648Z,6.90
2022-11-07T23:39:15.624Z,6.90
2022-11-07T23:41:44.786Z,6.90
2022-11-07T23:44:13.360Z,6.90
2022-11-07T23:46:59.011Z,6.90
2022-11-07T23:49:45.998Z,6.80
2022-11-07T23:52:13.995Z,6.80
2022-11-07T23:54:59.911Z,6.70
2022-11-07T23:57:27.966Z,6.70
